Time;durP1;ratioP1;P1;durP2;ratioP2;P2;SDS_P1;SDS_P2;PMS_P1;PMS_P2;Temp;Humidity;BMP_temperature;BMP_pressure;BME280_temperature;BME280_humidity;BME280_pressure;Samples;Min_cycle;Max_cycle;Signal;HPM_P1;HPM_P2
2021/10/26 00:00:05;;;;;;;3.92;3.63;;;7.60;99.90;;;;;;4999179;28;20207;-76
2021/10/26 00:02:32;;;;;;;3.20;3.00;;;7.60;99.90;;;;;;5022243;28;20246;-75
2021/10/26 00:04:59;;;;;;;3.20;3.00;;;7.60;99.90;;;;;;5024393;28;20228;-77
2021/10/26 00:07:28;;;;;;;3.90;3.53;;;7.60;99.90;;;;;;5024620;28;20227;-76
2021/10/26 00:09:55;;;;;;;3.45;3.25;;;7.60;99.90;;;;;;5023523;28;20215;-75
2021/10/26 00:12:22;;;;;;;3.70;3.40;;;7.60;99.90;;;;;;5022913;28;20231;-77
2021/10/26 00:14:49;;;;;;;3.38;3.17;;;7.60;99.90;;;;;;5024058;28;20227;-76
2021/10/26 00:17:16;;;;;;;3.25;3.00;;;7.60;99.90;;;;;;5022388;28;20273;-77
2021/10/26 00:19:43;;;;;;;3.58;3.38;;;7.60;99.90;;;;;;5018467;28;20242;-74
2021/10/26 00:22:12;;;;;;;3.70;3.50;;;7.60;99.90;;;;;;5023940;28;20364;-75
2021/10/26 00:24:40;;;;;;;3.70;3.40;;;7.70;99.90;;;;;;5020106;28;21764;-75
2021/10/26 00:27:07;;;;;;;3.75;3.50;;;7.70;99.90;;;;;;5025173;28;20223;-74
2021/10/26 00:29:34;;;;;;;4.05;3.45;;;7.70;99.90;;;;;;5021357;28;20273;-74
2021/10/26 00:32:02;;;;;;;3.35;3.15;;;7.70;99.90;;;;;;5023648;28;20297;-75
2021/10/26 00:34:29;;;;;;;3.33;3.13;;;7.70;99.90;;;;;;5024493;28;20227;-75
2021/10/26 00:36:56;;;;;;;3.25;2.95;;;7.80;99.90;;;;;;5036715;28;20234;-75
2021/10/26 00:39:23;;;;;;;3.95;3.42;;;7.80;99.90;;;;;;5023338;28;20227;-75
2021/10/26 00:41:52;;;;;;;3.40;3.20;;;7.80;99.90;;;;;;5024660;28;20226;-75
2021/10/26 00:44:19;;;;;;;3.40;3.20;;;7.80;99.90;;;;;;5021972;28;20216;-74
2021/10/26 00:46:48;;;;;;;3.75;3.50;;;7.80;99.90;;;;;;5021689;28;20648;-76
2021/10/26 00:49:15;;;;;;;3.35;3.15;;;7.80;99.90;;;;;;5023648;28;20223;-75
2021/10/26 00:51:43;;;;;;;3.47;3.17;;;7.90;99.90;;;;;;5025321;28;20227;-74
2021/10/26 00:54:10;;;;;;;3.20;3.00;;;7.90;99.90;;;;;;5023434;28;20219;-75
2021/10/26 00:56:37;;;;;;;3.30;3.10;;;7.90;99.90;;;;;;5023467;28;20223;-75
2021/10/26 00:59:05;;;;;;;3.10;2.90;;;7.90;99.90;;;;;;5022871;28;20215;-75
2021/10/26 01:01:32;;;;;;;3.50;3.30;;;7.80;99.90;;;;;;5024568;28;20281;-76
2021/10/26 01:04:00;;;;;;;3.30;3.10;;;7.80;99.90;;;;;;5023199;28;20273;-76
2021/10/26 01:06:27;;;;;;;3.15;2.92;;;7.80;99.90;;;;;;5024742;28;20230;-75
2021/10/26 01:08:54;;;;;;;3.55;3.25;;;7.80;99.90;;;;;;5021912;28;20228;-75
2021/10/26 01:11:21;;;;;;;3.53;3.33;;;7.80;99.90;;;;;;5024433;28;20219;-75
2021/10/26 01:13:49;;;;;;;3.00;2.80;;;7.70;99.90;;;;;;5021644;28;20218;-75
2021/10/26 01:16:18;;;;;;;3.50;3.20;;;7.70;99.90;;;;;;5022726;28;20364;-75
2021/10/26 01:18:45;;;;;;;4.55;3.28;;;7.70;99.90;;;;;;5023169;28;20289;-75
2021/10/26 01:21:14;;;;;;;3.05;2.85;;;7.70;99.90;;;;;;5027972;28;20223;-75
2021/10/26 01:23:41;;;;;;;3.75;3.45;;;7.60;99.90;;;;;;5026393;28;20230;-75
2021/10/26 01:26:08;;;;;;;3.10;2.90;;;7.60;99.90;;;;;;5030867;28;20223;-75
2021/10/26 01:28:35;;;;;;;3.40;3.20;;;7.60;99.90;;;;;;5040316;28;20223;-74
2021/10/26 01:31:03;;;;;;;3.58;3.30;;;7.60;99.90;;;;;;5028210;28;20697;-75
2021/10/26 01:33:31;;;;;;;3.67;3.38;;;7.50;99.90;;;;;;5026899;28;20223;-75
2021/10/26 01:35:58;;;;;;;3.60;3.30;;;7.50;99.90;;;;;;5029813;28;20230;-76
2021/10/26 01:38:27;;;;;;;3.25;3.05;;;7.50;99.90;;;;;;5027272;28;20215;-74
2021/10/26 01:40:54;;;;;;;3.80;3.50;;;7.50;99.90;;;;;;5028248;28;20235;-73
2021/10/26 01:43:22;;;;;;;3.87;3.57;;;7.40;99.90;;;;;;5028112;22;20219;-79
2021/10/26 01:45:49;;;;;;;3.60;3.40;;;7.40;99.90;;;;;;5042067;28;20234;-76
2021/10/26 01:48:16;;;;;;;3.75;3.45;;;7.30;99.90;;;;;;5046716;28;20211;-79
2021/10/26 01:50:43;;;;;;;3.35;3.10;;;7.30;99.90;;;;;;5048981;28;20280;-76
2021/10/26 01:53:10;;;;;;;5.68;3.50;;;7.20;99.90;;;;;;5043953;28;20729;-77
2021/10/26 01:55:39;;;;;;;3.33;3.08;;;7.10;99.90;;;;;;5050504;28;20782;-77
2021/10/26 01:58:06;;;;;;;3.63;3.38;;;7.10;99.90;;;;;;5047327;28;20222;-77
2021/10/26 02:00:33;;;;;;;3.17;2.97;;;7.10;99.90;;;;;;5021528;28;20377;-76
2021/10/26 02:03:00;;;;;;;3.28;3.05;;;7.10;99.90;;;;;;5045367;28;20227;-78
2021/10/26 02:05:27;;;;;;;3.33;3.03;;;7.10;99.90;;;;;;5048115;28;20223;-77
2021/10/26 02:07:54;;;;;;;3.05;2.88;;;7.20;99.90;;;;;;5046352;28;20277;-77
2021/10/26 02:10:21;;;;;;;3.95;3.13;;;7.20;99.90;;;;;;5047229;28;20273;-77
2021/10/26 02:12:50;;;;;;;3.28;3.00;;;7.20;99.90;;;;;;5047392;28;20234;-78
2021/10/26 02:15:18;;;;;;;3.20;3.00;;;7.20;99.90;;;;;;5046695;28;20597;-78
2021/10/26 02:17:45;;;;;;;2.90;2.70;;;7.20;99.90;;;;;;5047062;28;20227;-78
2021/10/26 02:20:12;;;;;;;3.10;2.90;;;7.20;99.90;;;;;;5047082;28;20284;-77
2021/10/26 02:22:39;;;;;;;3.40;3.20;;;7.20;99.90;;;;;;5047432;28;20309;-78
2021/10/26 02:25:07;;;;;;;2.80;2.60;;;7.20;99.90;;;;;;5046753;28;20226;-77
2021/10/26 02:27:34;;;;;;;3.20;3.00;;;7.20;99.90;;;;;;5048138;28;20231;-75
2021/10/26 02:30:03;;;;;;;2.95;2.75;;;7.20;99.90;;;;;;5046021;28;20223;-76
2021/10/26 02:32:30;;;;;;;3.42;3.13;;;7.30;99.90;;;;;;5047874;28;20230;-76
2021/10/26 02:34:57;;;;;;;2.92;2.72;;;7.30;99.90;;;;;;5042627;28;20351;-76
2021/10/26 02:37:24;;;;;;;3.42;3.13;;;7.30;99.90;;;;;;5048097;28;20218;-78
2021/10/26 02:39:51;;;;;;;2.78;2.58;;;7.30;99.90;;;;;;5047197;28;20218;-77
2021/10/26 02:42:18;;;;;;;3.00;2.80;;;7.30;99.90;;;;;;5041393;28;20219;-77
2021/10/26 02:44:45;;;;;;;3.00;2.80;;;7.30;99.90;;;;;;5043276;28;20219;-76
2021/10/26 02:47:14;;;;;;;3.15;2.95;;;7.30;99.90;;;;;;5046045;28;20234;-76
2021/10/26 02:49:41;;;;;;;3.05;2.85;;;7.30;99.90;;;;;;5045115;28;20276;-77
2021/10/26 02:52:08;;;;;;;2.95;2.75;;;7.30;99.90;;;;;;5046784;28;20277;-77
2021/10/26 02:54:35;;;;;;;3.30;3.00;;;7.30;99.90;;;;;;5046861;28;20241;-77
2021/10/26 02:57:02;;;;;;;3.35;3.15;;;7.30;99.90;;;;;;5043235;28;20212;-77
2021/10/26 02:59:29;;;;;;;3.40;3.10;;;7.30;99.90;;;;;;5046956;28;20509;-76
2021/10/26 03:01:56;;;;;;;3.30;3.00;;;7.20;99.90;;;;;;5047146;28;20649;-77
2021/10/26 03:04:25;;;;;;;4.45;3.15;;;7.10;99.90;;;;;;5044516;28;20231;-76
2021/10/26 03:06:52;;;;;;;3.67;3.10;;;7.10;99.90;;;;;;5046630;28;20280;-76
2021/10/26 03:09:19;;;;;;;3.63;3.35;;;7.00;99.90;;;;;;5046623;28;20218;-76
2021/10/26 03:11:46;;;;;;;3.05;2.83;;;7.00;99.90;;;;;;5045413;28;20292;-75
2021/10/26 03:14:13;;;;;;;3.35;3.05;;;6.90;99.90;;;;;;5043864;28;20230;-77
2021/10/26 03:16:40;;;;;;;3.00;2.80;;;6.90;99.90;;;;;;5046444;28;20317;-76
2021/10/26 03:19:07;;;;;;;2.90;2.70;;;6.80;99.90;;;;;;5045370;28;20300;-78
2021/10/26 03:21:37;;;;;;;3.40;3.20;;;6.80;99.90;;;;;;5046152;28;20230;-76
2021/10/26 03:24:05;;;;;;;3.50;3.20;;;6.80;99.90;;;;;;5045030;28;20223;-76
2021/10/26 03:26:32;;;;;;;3.20;3.00;;;6.80;99.90;;;;;;5045376;28;20639;-78
2021/10/26 03:28:59;;;;;;;3.28;2.97;;;6.80;99.90;;;;;;5043097;28;20231;-75
2021/10/26 03:31:26;;;;;;;3.08;2.88;;;6.80;99.90;;;;;;5047200;28;20724;-77
2021/10/26 03:33:53;;;;;;;3.28;3.08;;;6.70;99.90;;;;;;5043531;28;20272;-77
2021/10/26 03:36:20;;;;;;;3.65;3.40;;;6.80;99.90;;;;;;5045231;28;20219;-77
2021/10/26 03:38:50;;;;;;;3.60;3.30;;;6.80;99.90;;;;;;5046200;28;20211;-77
2021/10/26 03:41:18;;;;;;;3.45;3.13;;;6.80;99.90;;;;;;5043770;28;20265;-75
2021/10/26 03:43:45;;;;;;;3.35;3.08;;;6.80;99.90;;;;;;5045154;28;20219;-77
2021/10/26 03:46:14;;;;;;;3.20;3.00;;;6.80;99.90;;;;;;5045312;28;20214;-76
2021/10/26 03:48:41;;;;;;;3.38;3.17;;;6.70;99.90;;;;;;5045221;28;20237;-77
2021/10/26 03:51:08;;;;;;;3.53;2.95;;;6.70;99.90;;;;;;5044413;28;20708;-75
2021/10/26 03:53:35;;;;;;;2.80;2.70;;;6.70;99.90;;;;;;5044196;28;20284;-76
2021/10/26 03:56:06;;;;;;;2.63;2.47;;;6.70;99.90;;;;;;5045176;28;20619;-76
2021/10/26 03:58:35;;;;;;;2.90;2.70;;;6.70;99.90;;;;;;5045691;28;20218;-77
2021/10/26 04:01:02;;;;;;;2.72;2.55;;;6.70;99.90;;;;;;5045146;28;20227;-76
2021/10/26 04:03:29;;;;;;;3.10;2.90;;;6.70;99.90;;;;;;5045292;28;20298;-76
2021/10/26 04:06:01;;;;;;;3.25;2.95;;;6.70;99.90;;;;;;5043482;28;20398;-77
2021/10/26 04:08:32;;;;;;;3.40;3.10;;;6.70;99.90;;;;;;5044846;28;20238;-76
2021/10/26 04:11:02;;;;;;;3.42;3.13;;;6.70;99.90;;;;;;5045642;28;20232;-77
2021/10/26 04:13:31;;;;;;;3.20;3.00;;;6.60;99.90;;;;;;5041033;28;20689;-77
2021/10/26 04:15:58;;;;;;;2.90;2.70;;;6.60;99.90;;;;;;5044439;28;20237;-76
2021/10/26 04:18:25;;;;;;;3.50;3.22;;;6.60;99.90;;;;;;5042810;28;20322;-78
2021/10/26 04:20:52;;;;;;;3.42;3.13;;;6.60;99.90;;;;;;5044733;28;20227;-75
2021/10/26 04:23:19;;;;;;;3.10;2.80;;;6.60;99.90;;;;;;5043921;28;20223;-79
2021/10/26 04:25:46;;;;;;;3.17;2.97;;;6.60;99.90;;;;;;5044850;28;20222;-77
2021/10/26 04:28:13;;;;;;;2.95;2.75;;;6.60;99.90;;;;;;5044896;28;20230;-77
2021/10/26 04:30:43;;;;;;;2.70;2.50;;;6.60;99.90;;;;;;5044388;28;20289;-74
2021/10/26 04:33:10;;;;;;;3.03;2.70;;;6.60;99.90;;;;;;5045915;28;20280;-77
2021/10/26 04:35:37;;;;;;;4.18;3.15;;;6.60;99.90;;;;;;5046756;28;20218;-77
2021/10/26 04:38:05;;;;;;;3.03;2.83;;;6.50;99.90;;;;;;5045544;28;20218;-77
2021/10/26 04:40:32;;;;;;;3.08;2.88;;;6.50;99.90;;;;;;5042382;28;20226;-77
2021/10/26 04:43:00;;;;;;;3.20;2.95;;;6.50;99.90;;;;;;5046357;28;20273;-77
2021/10/26 04:45:27;;;;;;;3.13;2.92;;;6.50;99.90;;;;;;5045937;28;20782;-78
2021/10/26 04:47:55;;;;;;;3.28;3.03;;;6.50;99.90;;;;;;5042169;28;20272;-76
2021/10/26 04:50:23;;;;;;;2.83;2.63;;;6.50;99.90;;;;;;5045971;28;20219;-77
2021/10/26 04:52:50;;;;;;;3.38;3.17;;;6.50;99.90;;;;;;5045900;28;20701;-79
2021/10/26 04:55:18;;;;;;;3.40;3.13;;;6.50;99.90;;;;;;5043945;28;20292;-77
2021/10/26 04:57:45;;;;;;;3.17;2.97;;;6.50;99.90;;;;;;5044405;28;20226;-76
2021/10/26 05:00:13;;;;;;;3.15;2.95;;;6.40;99.90;;;;;;5042573;28;20634;-77
2021/10/26 05:02:40;;;;;;;3.50;3.20;;;6.40;99.90;;;;;;5042301;28;20788;-77
2021/10/26 05:05:10;;;;;;;2.88;2.67;;;6.30;99.90;;;;;;5046125;28;20713;-76
2021/10/26 05:07:37;;;;;;;3.58;3.28;;;6.30;99.90;;;;;;5043604;28;20211;-77
2021/10/26 05:10:05;;;;;;;3.17;2.97;;;6.30;99.90;;;;;;5044816;28;20226;-77
2021/10/26 05:12:32;;;;;;;3.28;3.08;;;6.30;99.90;;;;;;5045627;28;20761;-76
2021/10/26 05:14:59;;;;;;;2.72;2.63;;;6.40;99.90;;;;;;5044923;28;20231;-77
2021/10/26 05:17:27;;;;;;;3.40;3.20;;;6.40;99.90;;;;;;5045561;28;20582;-76
2021/10/26 05:19:56;;;;;;;3.17;2.97;;;6.40;99.90;;;;;;5045565;28;20716;-77
2021/10/26 05:22:27;;;;;;;3.38;3.17;;;6.40;99.90;;;;;;5046106;28;20223;-77
2021/10/26 05:24:54;;;;;;;2.90;2.70;;;6.40;99.90;;;;;;5046439;28;20573;-78
2021/10/26 05:27:21;;;;;;;3.58;3.33;;;6.40;99.90;;;;;;5046509;28;20280;-79
2021/10/26 05:29:49;;;;;;;3.28;3.08;;;6.40;99.90;;;;;;5046711;28;20214;-75
2021/10/26 05:32:17;;;;;;;3.30;3.08;;;6.40;99.90;;;;;;5047073;28;20222;-83
2021/10/26 05:34:44;;;;;;;3.97;3.65;;;6.30;99.90;;;;;;5046529;28;20222;-78
2021/10/26 05:37:12;;;;;;;3.45;3.25;;;6.30;99.90;;;;;;5047330;28;20301;-78
2021/10/26 05:39:44;;;;;;;3.63;3.33;;;6.30;99.90;;;;;;5044596;28;20644;-80
2021/10/26 05:42:11;;;;;;;3.55;3.25;;;6.20;99.90;;;;;;5047809;28;20249;-76
2021/10/26 05:44:38;;;;;;;2.90;2.70;;;6.20;99.90;;;;;;5047106;28;20771;-80
2021/10/26 05:47:05;;;;;;;3.70;3.40;;;6.20;99.90;;;;;;5046510;28;20264;-79
2021/10/26 05:49:33;;;;;;;3.20;3.00;;;6.20;99.90;;;;;;5046215;28;20199;-81
2021/10/26 05:52:00;;;;;;;4.68;3.60;;;6.20;99.90;;;;;;5044775;28;20272;-83
2021/10/26 05:54:27;;;;;;;3.90;3.60;;;6.20;99.90;;;;;;5047351;28;20226;-83
2021/10/26 05:56:56;;;;;;;3.63;3.33;;;6.10;99.90;;;;;;5043696;28;20720;-76
2021/10/26 05:59:23;;;;;;;3.97;3.67;;;6.10;99.90;;;;;;5043825;28;20229;-76
2021/10/26 06:01:50;;;;;;;3.58;3.28;;;6.10;99.90;;;;;;5046105;28;20222;-77
2021/10/26 06:04:18;;;;;;;3.35;3.15;;;6.10;99.90;;;;;;5044629;28;20254;-78
2021/10/26 06:06:45;;;;;;;3.92;3.63;;;6.10;99.90;;;;;;5041895;28;20700;-79
2021/10/26 06:09:15;;;;;;;3.78;3.53;;;6.10;99.90;;;;;;5045672;28;20516;-77
2021/10/26 06:11:42;;;;;;;4.13;3.38;;;6.10;99.90;;;;;;5048068;28;20246;-80
2021/10/26 06:14:10;;;;;;;4.25;3.78;;;6.10;99.90;;;;;;5047944;28;20655;-78
2021/10/26 06:16:37;;;;;;;3.97;3.72;;;6.10;99.90;;;;;;5048832;28;20230;-78
2021/10/26 06:19:05;;;;;;;3.35;3.15;;;6.20;99.90;;;;;;5048111;28;20222;-79
2021/10/26 06:21:32;;;;;;;3.47;3.17;;;6.20;99.90;;;;;;5049206;28;20226;-80
2021/10/26 06:23:59;;;;;;;3.50;3.30;;;6.20;99.90;;;;;;5045808;28;20804;-82
2021/10/26 06:26:27;;;;;;;3.88;3.58;;;6.20;99.90;;;;;;5048062;28;20223;-82
2021/10/26 06:28:55;;;;;;;3.50;3.30;;;6.30;99.90;;;;;;5045856;28;20222;-82
2021/10/26 06:31:23;;;;;;;3.17;2.88;;;6.30;99.90;;;;;;5048143;28;20276;-78
2021/10/26 06:33:51;;;;;;;3.70;3.40;;;6.30;99.90;;;;;;5047788;28;20659;-82
2021/10/26 06:36:21;;;;;;;3.78;3.47;;;6.40;99.90;;;;;;5046676;28;20219;-75
2021/10/26 06:38:47;;;;;;;3.30;3.10;;;6.40;99.90;;;;;;5048608;28;20280;-83
2021/10/26 06:41:15;;;;;;;3.92;3.63;;;6.40;99.90;;;;;;5045830;28;20515;-83
2021/10/26 06:43:42;;;;;;;3.90;3.60;;;6.40;99.90;;;;;;5044948;28;20249;-78
2021/10/26 06:46:09;;;;;;;4.13;3.72;;;6.40;99.90;;;;;;5017042;28;20634;-80
2021/10/26 06:48:38;;;;;;;3.58;3.28;;;6.40;99.90;;;;;;5039231;28;20222;-80
2021/10/26 06:51:05;;;;;;;5.22;3.47;;;6.30;99.90;;;;;;5039391;28;20697;-76
2021/10/26 06:53:36;;;;;;;3.67;3.38;;;6.40;99.90;;;;;;5038925;28;20338;-79
2021/10/26 06:56:07;;;;;;;3.72;3.42;;;6.40;99.90;;;;;;5039613;28;20223;-85
2021/10/26 06:58:34;;;;;;;3.50;3.20;;;6.40;99.90;;;;;;5037990;28;20226;-82
2021/10/26 07:01:06;;;;;;;2.95;2.75;;;6.40;99.90;;;;;;5035727;28;20226;-82
2021/10/26 07:03:34;;;;;;;3.55;3.33;;;6.80;99.90;;;;;;5036854;28;20305;-76
2021/10/26 07:06:03;;;;;;;3.97;3.67;;;7.70;99.90;;;;;;5040756;28;20237;-75
2021/10/26 07:08:30;;;;;;;3.58;3.28;;;8.70;99.90;;;;;;5043892;28;20526;-74
2021/10/26 07:10:57;;;;;;;4.03;3.72;;;9.60;99.90;;;;;;5046675;28;20222;-76
2021/10/26 07:13:24;;;;;;;3.60;3.30;;;10.30;99.90;;;;;;5046487;28;20241;-75
2021/10/26 07:15:51;;;;;;;3.72;3.42;;;10.90;99.90;;;;;;5043905;28;20294;-77
2021/10/26 07:18:19;;;;;;;4.22;3.83;;;11.40;99.90;;;;;;5045335;28;20727;-77
2021/10/26 07:20:47;;;;;;;4.10;3.80;;;11.60;99.90;;;;;;5046486;28;20269;-78
2021/10/26 07:23:15;;;;;;;3.60;3.30;;;12.00;99.90;;;;;;5046970;28;20240;-77
2021/10/26 07:25:43;;;;;;;4.28;3.97;;;12.40;99.90;;;;;;5045238;28;20222;-77
2021/10/26 07:28:10;;;;;;;4.40;4.00;;;12.50;99.90;;;;;;5045285;28;20218;-76
2021/10/26 07:30:39;;;;;;;4.63;3.55;;;12.80;99.90;;;;;;5047162;28;20585;-77
2021/10/26 07:33:08;;;;;;;5.72;4.57;;;13.00;99.90;;;;;;5047992;28;20258;-76
2021/10/26 07:35:40;;;;;;;4.07;3.78;;;13.20;99.90;;;;;;5046876;28;20276;-77
2021/10/26 07:38:08;;;;;;;5.03;4.30;;;13.20;99.90;;;;;;5047732;28;20231;-77
2021/10/26 07:40:36;;;;;;;4.32;3.83;;;13.40;99.90;;;;;;5037670;28;20223;-77
2021/10/26 07:43:03;;;;;;;5.13;4.63;;;13.60;99.90;;;;;;5039876;28;20216;-77
2021/10/26 07:45:31;;;;;;;9.70;4.43;;;14.00;99.90;;;;;;5035041;23;20226;-78
2021/10/26 07:47:58;;;;;;;6.07;3.53;;;14.10;99.90;;;;;;5038554;28;20323;-79
2021/10/26 07:50:25;;;;;;;4.82;4.13;;;14.00;99.90;;;;;;5034089;28;20215;-82
2021/10/26 07:52:52;;;;;;;4.35;3.67;;;14.10;99.90;;;;;;5021778;28;20220;-77
2021/10/26 07:55:20;;;;;;;4.25;3.85;;;14.30;99.90;;;;;;5011610;28;20232;-80
2021/10/26 07:57:49;;;;;;;4.38;3.85;;;14.60;99.90;;;;;;5003492;28;20236;-78
2021/10/26 08:00:16;;;;;;;4.57;4.13;;;14.90;99.90;;;;;;5005381;28;20303;-78
2021/10/26 08:02:43;;;;;;;4.60;4.20;;;15.00;99.90;;;;;;5004014;28;20255;-76
2021/10/26 08:05:11;;;;;;;5.10;4.57;;;15.10;99.90;;;;;;5003392;28;20236;-83
2021/10/26 08:07:38;;;;;;;4.70;4.20;;;15.20;99.90;;;;;;5002905;28;20536;-77
2021/10/26 08:10:06;;;;;;;5.25;4.68;;;15.50;99.90;;;;;;5002623;28;20282;-78
2021/10/26 08:12:33;;;;;;;4.88;3.95;;;15.60;99.90;;;;;;4992750;28;20546;-83
2021/10/26 08:15:02;;;;;;;4.35;3.80;;;15.40;99.90;;;;;;5011888;28;20223;-78
2021/10/26 08:17:29;;;;;;;4.20;3.40;;;15.20;99.90;;;;;;5020401;28;20596;-81
2021/10/26 08:19:56;;;;;;;3.72;3.42;;;15.20;99.90;;;;;;5008577;28;20265;-75
2021/10/26 08:22:25;;;;;;;4.72;4.30;;;15.30;99.90;;;;;;5005414;28;20231;-76
2021/10/26 08:24:57;;;;;;;4.43;4.03;;;15.50;99.90;;;;;;4998803;28;20235;-75
2021/10/26 08:27:24;;;;;;;5.00;3.30;;;15.40;99.90;;;;;;4999465;28;20231;-77
2021/10/26 08:29:55;;;;;;;4.40;4.00;;;15.20;99.90;;;;;;5005919;28;20220;-84
2021/10/26 08:32:47;;;;;;;5.72;4.22;;;15.20;99.90;;;;;;4997822;28;20232;-80
2021/10/26 08:35:25;;;;;;;5.82;3.97;;;15.20;99.90;;;;;;5007528;28;20277;-75
2021/10/26 08:37:54;;;;;;;4.40;4.00;;;15.10;99.90;;;;;;5009494;28;20229;-80
2021/10/26 08:40:23;;;;;;;4.28;3.70;;;14.90;99.90;;;;;;5017765;28;20574;-77
2021/10/26 08:42:51;;;;;;;4.13;3.63;;;14.80;99.90;;;;;;5019814;28;20219;-81
2021/10/26 08:45:21;;;;;;;4.30;3.88;;;15.10;99.90;;;;;;5019791;28;20223;-76
2021/10/26 08:47:49;;;;;;;4.35;3.20;;;15.10;99.90;;;;;;5018036;28;20220;-80
2021/10/26 08:50:18;;;;;;;4.20;3.80;;;15.20;99.90;;;;;;5008224;28;20228;-76
2021/10/26 08:52:45;;;;;;;3.65;3.30;;;15.10;99.90;;;;;;5019173;28;20223;-78
2021/10/26 08:55:13;;;;;;;6.35;3.60;;;15.10;99.90;;;;;;5013459;28;20326;-78
2021/10/26 08:57:40;;;;;;;6.10;3.92;;;15.10;99.90;;;;;;5016217;28;20258;-76
2021/10/26 09:00:09;;;;;;;5.57;3.65;;;15.00;99.90;;;;;;5021080;28;20288;-76
2021/10/26 09:02:40;;;;;;;3.85;3.55;;;15.10;99.90;;;;;;5016071;28;20235;-77
2021/10/26 09:05:14;;;;;;;4.50;3.92;;;15.20;99.90;;;;;;5018883;28;20646;-83
2021/10/26 09:07:41;;;;;;;5.28;4.00;;;15.10;99.90;;;;;;5019016;28;20218;-76
2021/10/26 09:10:12;;;;;;;3.90;3.50;;;15.30;99.90;;;;;;5008583;28;20220;-78
2021/10/26 09:18:26;;;;;;;7.07;3.80;;;16.00;99.90;;;;;;4994411;28;20261;-77
2021/10/26 09:20:55;;;;;;;4.22;3.85;;;15.90;99.90;;;;;;4990779;28;20231;-78
2021/10/26 09:23:26;;;;;;;4.05;3.63;;;15.60;99.90;;;;;;5003248;28;20240;-77
2021/10/26 09:25:58;;;;;;;5.32;4.00;;;15.40;99.90;;;;;;5004536;28;20231;-78
2021/10/26 09:28:27;;;;;;;4.35;3.90;;;15.40;99.90;;;;;;5016269;28;20663;-76
2021/10/26 09:31:06;;;;;;;3.53;3.22;;;15.40;99.90;;;;;;5012208;28;20221;-77
2021/10/26 09:33:35;;;;;;;4.63;4.03;;;15.70;99.90;;;;;;4980786;28;20986;-78
2021/10/26 09:36:27;;;;;;;4.93;3.53;;;15.90;99.90;;;;;;4995466;28;20605;-79
2021/10/26 09:39:15;;;;;;;5.53;3.72;;;15.90;99.90;;;;;;5002326;28;20228;-76
2021/10/26 09:42:10;;;;;;;5.25;4.03;;;15.80;99.90;;;;;;4996683;28;20648;-83
2021/10/26 09:44:44;;;;;;;4.32;3.90;;;15.70;99.90;;;;;;5001110;28;20311;-84
2021/10/26 09:47:18;;;;;;;4.60;4.20;;;15.80;99.90;;;;;;5000508;28;20243;-82
2021/10/26 09:49:52;;;;;;;5.15;3.38;;;15.80;99.90;;;;;;5003039;28;20234;-79
2021/10/26 09:52:25;;;;;;;4.70;3.80;;;15.90;99.90;;;;;;5002319;28;20220;-80
2021/10/26 09:55:15;;;;;;;5.68;3.95;;;15.80;99.90;;;;;;4998806;28;20224;-83
2021/10/26 09:57:46;;;;;;;4.25;3.50;;;15.80;99.90;;;;;;5001375;28;20224;-82
2021/10/26 10:00:18;;;;;;;4.65;3.70;;;15.90;99.90;;;;;;5003426;28;20323;-86
2021/10/26 10:03:00;;;;;;;3.85;3.38;;;16.30;99.90;;;;;;5000167;28;20493;-81
2021/10/26 10:05:29;;;;;;;5.88;3.30;;;16.50;99.90;;;;;;5001180;28;20654;-86
2021/10/26 10:07:59;;;;;;;3.63;3.30;;;16.60;99.90;;;;;;4999609;28;20692;-83
2021/10/26 10:10:37;;;;;;;3.97;3.65;;;16.80;99.90;;;;;;4997226;28;20227;-79
2021/10/26 10:13:04;;;;;;;4.43;3.53;;;16.60;99.90;;;;;;5021136;28;20269;-80
2021/10/26 10:15:31;;;;;;;3.78;3.40;;;16.50;99.90;;;;;;5012759;28;20239;-78
2021/10/26 10:18:02;;;;;;;3.42;3.13;;;16.50;99.90;;;;;;5001321;28;20228;-80
2021/10/26 10:20:29;;;;;;;3.30;3.00;;;16.80;99.90;;;;;;5015868;28;20237;-82
2021/10/26 10:22:59;;;;;;;3.78;3.38;;;17.20;99.90;;;;;;5025798;28;20904;-83
2021/10/26 10:25:27;;;;;;;3.55;3.25;;;17.70;99.90;;;;;;5023031;28;20231;-79
2021/10/26 10:27:57;;;;;;;3.83;3.42;;;17.90;99.90;;;;;;5024773;28;20686;-83
2021/10/26 10:30:25;;;;;;;3.97;3.33;;;18.10;99.90;;;;;;5025901;28;20694;-78
2021/10/26 10:32:52;;;;;;;4.28;3.35;;;18.30;99.90;;;;;;5026334;28;20493;-82
2021/10/26 10:35:20;;;;;;;3.42;3.10;;;18.30;99.90;;;;;;5027878;28;20215;-81
2021/10/26 10:37:51;;;;;;;4.30;3.17;;;18.40;99.90;;;;;;5026498;28;20683;-81
2021/10/26 10:40:26;;;;;;;3.30;3.00;;;18.30;99.90;;;;;;5020504;28;20661;-79
2021/10/26 10:42:54;;;;;;;3.25;2.95;;;18.20;99.90;;;;;;5005897;28;20215;-77
2021/10/26 10:45:25;;;;;;;4.38;2.90;;;18.10;99.90;;;;;;5013186;28;20314;-81
2021/10/26 10:47:53;;;;;;;4.63;2.88;;;18.00;99.90;;;;;;5025418;28;20310;-81
2021/10/26 10:50:29;;;;;;;3.35;3.05;;;17.90;99.90;;;;;;5017836;28;20603;-79
2021/10/26 10:53:19;;;;;;;3.70;3.20;;;17.80;99.90;;;;;;5010409;28;20216;-79
2021/10/26 10:55:51;;;;;;;2.95;2.70;;;18.20;99.90;;;;;;5014707;28;21344;-81
2021/10/26 10:58:30;;;;;;;3.17;2.97;;;18.40;99.90;;;;;;5025893;28;20297;-80
2021/10/26 11:01:30;;;;;;;3.45;2.83;;;18.50;99.90;;;;;;5025421;28;20219;-78
2021/10/26 11:03:59;;;;;;;3.03;2.83;;;18.40;99.90;;;;;;5003659;28;20848;-79
2021/10/26 11:06:56;;;;;;;3.25;2.95;;;18.50;99.90;;;;;;5019558;28;20223;-81
2021/10/26 11:09:37;;;;;;;4.90;3.17;;;18.60;99.90;;;;;;5007173;28;20224;-79
2021/10/26 11:12:21;;;;;;;3.58;3.28;;;18.60;99.90;;;;;;5025733;28;20218;-80
2021/10/26 11:14:53;;;;;;;3.08;2.80;;;18.10;99.90;;;;;;5009342;28;20265;-78
2021/10/26 11:17:54;;;;;;;3.50;2.95;;;17.80;99.90;;;;;;5024668;28;20239;-78
2021/10/26 11:20:41;;;;;;;3.60;2.80;;;17.90;99.90;;;;;;4977917;28;20224;-81
2021/10/26 11:23:10;;;;;;;4.38;2.80;;;18.20;99.90;;;;;;4979958;28;20233;-80
2021/10/26 11:25:39;;;;;;;2.60;2.40;;;18.30;99.90;;;;;;5005897;28;20686;-79
2021/10/26 11:28:39;;;;;;;2.72;2.35;;;18.30;99.90;;;;;;5025208;28;20230;-81
2021/10/26 11:31:11;;;;;;;2.83;2.63;;;18.40;99.90;;;;;;5023643;28;20624;-82
2021/10/26 11:33:41;;;;;;;2.60;2.40;;;18.30;99.90;;;;;;5021935;28;20219;-81
2021/10/26 11:36:09;;;;;;;3.83;2.65;;;18.50;99.90;;;;;;5024312;28;20823;-78
2021/10/26 11:38:40;;;;;;;3.55;2.67;;;18.20;99.90;;;;;;5026186;28;20235;-83
2021/10/26 11:41:09;;;;;;;3.05;2.75;;;17.90;99.90;;;;;;5023094;28;20219;-80
2021/10/26 11:43:44;;;;;;;2.97;2.65;;;18.10;99.90;;;;;;5025799;28;20223;-80
2021/10/26 11:46:13;;;;;;;3.22;2.70;;;18.30;99.90;;;;;;5022617;28;20222;-79
2021/10/26 11:48:45;;;;;;;4.70;2.80;;;18.20;99.90;;;;;;5024886;28;20302;-80
2021/10/26 11:51:18;;;;;;;4.00;2.40;;;18.20;99.90;;;;;;5024040;28;20615;-79
2021/10/26 11:53:45;;;;;;;6.40;2.60;;;18.10;99.90;;;;;;5025124;28;20227;-79
2021/10/26 11:56:28;;;;;;;3.65;2.58;;;18.20;99.90;;;;;;5023180;28;20891;-81
2021/10/26 11:58:59;;;;;;;2.60;2.40;;;18.40;99.90;;;;;;5027960;28;20219;-80
2021/10/26 12:01:49;;;;;;;2.50;2.30;;;18.20;99.90;;;;;;5029144;28;20230;-79
2021/10/26 12:04:30;;;;;;;3.58;2.85;;;18.20;99.90;;;;;;5028897;28;20224;-80
2021/10/26 12:07:00;;;;;;;2.60;2.40;;;17.90;99.90;;;;;;5025554;28;20223;-79
2021/10/26 12:09:28;;;;;;;4.50;3.00;;;18.10;99.90;;;;;;5026525;28;20223;-80
2021/10/26 12:11:57;;;;;;;3.30;2.17;;;18.30;99.90;;;;;;5026373;28;20611;-80
2021/10/26 12:14:31;;;;;;;2.88;2.63;;;18.40;99.90;;;;;;5026529;28;20520;-79
2021/10/26 12:17:13;;;;;;;2.90;2.70;;;18.60;99.90;;;;;;5027462;28;20235;-79
2021/10/26 12:19:43;;;;;;;3.38;2.47;;;18.80;99.90;;;;;;5023726;28;20219;-79
2021/10/26 12:22:18;;;;;;;3.13;2.67;;;18.50;99.90;;;;;;5025776;28;20227;-81
2021/10/26 12:24:47;;;;;;;6.00;2.38;;;18.50;99.90;;;;;;5025590;28;20219;-79
2021/10/26 12:27:14;;;;;;;3.78;2.78;;;18.60;99.90;;;;;;5025118;28;20642;-80
2021/10/26 12:29:43;;;;;;;4.03;2.85;;;18.40;99.90;;;;;;5025801;28;20749;-80
2021/10/26 12:32:11;;;;;;;3.28;2.80;;;18.30;99.90;;;;;;5024576;28;20313;-81
2021/10/26 12:34:42;;;;;;;2.88;2.58;;;18.10;99.90;;;;;;5024779;28;20702;-80
2021/10/26 12:37:22;;;;;;;2.75;2.55;;;18.00;99.90;;;;;;5007600;28;20227;-80
2021/10/26 12:39:53;;;;;;;3.15;2.85;;;17.80;99.90;;;;;;5025166;28;20215;-82
2021/10/26 12:42:45;;;;;;;3.35;2.80;;;17.70;99.90;;;;;;5025127;28;20222;-79
2021/10/26 12:45:15;;;;;;;2.90;2.65;;;17.90;99.90;;;;;;4992336;28;20228;-82
2021/10/26 12:47:57;;;;;;;2.35;2.15;;;17.90;99.90;;;;;;5024401;28;20230;-78
2021/10/26 12:50:37;;;;;;;3.50;2.30;;;18.00;99.90;;;;;;5022332;28;20223;-79
2021/10/26 12:53:19;;;;;;;4.07;2.60;;;18.00;99.90;;;;;;5035820;28;20216;-79
2021/10/26 12:55:49;;;;;;;3.00;2.80;;;17.90;99.90;;;;;;5012884;28;20235;-80
2021/10/26 12:58:35;;;;;;;2.97;2.67;;;17.60;99.90;;;;;;5025430;28;20219;-83
2021/10/26 13:01:05;;;;;;;5.10;2.60;;;17.40;99.90;;;;;;5024217;28;20273;-81
2021/10/26 13:03:32;;;;;;;2.40;2.20;;;17.30;99.90;;;;;;5024448;28;20642;-81
2021/10/26 13:06:06;;;;;;;2.72;2.45;;;17.30;99.90;;;;;;5023067;28;20289;-80
2021/10/26 13:08:34;;;;;;;2.67;2.47;;;17.20;99.90;;;;;;5007640;28;20219;-79
2021/10/26 13:11:25;;;;;;;2.83;2.22;;;17.10;99.90;;;;;;5003631;28;20247;-80